sensor_id;sensor_type;location;lat;lon;timestamp;P1;durP1;ratioP1;P2;durP2;ratioP2
15049;SDS011;7622;42.724;23.250;2022-08-19T00:01:13;5.63;;;5.13;;
15049;SDS011;7622;42.724;23.250;2022-08-19T00:03:40;6.40;;;4.93;;
15049;SDS011;7622;42.724;23.250;2022-08-19T00:06:07;6.63;;;6.03;;
15049;SDS011;7622;42.724;23.250;2022-08-19T00:08:34;6.57;;;5.90;;
15049;SDS011;7622;42.724;23.250;2022-08-19T00:11:01;6.00;;;5.57;;
15049;SDS011;7622;42.724;23.250;2022-08-19T00:13:29;6.40;;;5.80;;
15049;SDS011;7622;42.724;23.250;2022-08-19T00:15:56;6.27;;;5.77;;
15049;SDS011;7622;42.724;23.250;2022-08-19T00:18:25;5.57;;;5.17;;
15049;SDS011;7622;42.724;23.250;2022-08-19T00:20:53;5.67;;;5.17;;
15049;SDS011;7622;42.724;23.250;2022-08-19T00:23:20;5.57;;;5.07;;
15049;SDS011;7622;42.724;23.250;2022-08-19T00:25:47;5.57;;;5.03;;
15049;SDS011;7622;42.724;23.250;2022-08-19T00:28:13;6.20;;;5.67;;
15049;SDS011;7622;42.724;23.250;2022-08-19T00:30:42;6.33;;;5.73;;
15049;SDS011;7622;42.724;23.250;2022-08-19T00:33:09;6.23;;;5.70;;
15049;SDS011;7622;42.724;23.250;2022-08-19T00:35:35;8.37;;;5.90;;
15049;SDS011;7622;42.724;23.250;2022-08-19T00:38:03;5.87;;;5.40;;
15049;SDS011;7622;42.724;23.250;2022-08-19T00:40:32;5.97;;;5.47;;
15049;SDS011;7622;42.724;23.250;2022-08-19T00:42:58;5.73;;;5.30;;
15049;SDS011;7622;42.724;23.250;2022-08-19T00:45:26;6.23;;;5.73;;
15049;SDS011;7622;42.724;23.250;2022-08-19T00:47:57;5.60;;;5.10;;
15049;SDS011;7622;42.724;23.250;2022-08-19T00:50:28;6.00;;;5.60;;
15049;SDS011;7622;42.724;23.250;2022-08-19T00:52:55;8.33;;;5.37;;
15049;SDS011;7622;42.724;23.250;2022-08-19T00:55:23;5.77;;;5.30;;
15049;SDS011;7622;42.724;23.250;2022-08-19T00:57:55;10.77;;;5.63;;
15049;SDS011;7622;42.724;23.250;2022-08-19T01:00:24;5.63;;;5.13;;
15049;SDS011;7622;42.724;23.250;2022-08-19T01:02:53;5.67;;;5.27;;
15049;SDS011;7622;42.724;23.250;2022-08-19T01:05:23;4.97;;;4.63;;
15049;SDS011;7622;42.724;23.250;2022-08-19T01:07:53;6.43;;;5.23;;
15049;SDS011;7622;42.724;23.250;2022-08-19T01:10:23;5.33;;;4.83;;
15049;SDS011;7622;42.724;23.250;2022-08-19T01:12:52;5.77;;;5.27;;
15049;SDS011;7622;42.724;23.250;2022-08-19T01:15:21;5.10;;;4.80;;
15049;SDS011;7622;42.724;23.250;2022-08-19T01:17:53;5.87;;;5.17;;
15049;SDS011;7622;42.724;23.250;2022-08-19T01:20:23;6.03;;;5.50;;
15049;SDS011;7622;42.724;23.250;2022-08-19T01:22:52;5.90;;;5.50;;
15049;SDS011;7622;42.724;23.250;2022-08-19T01:25:21;6.10;;;5.23;;
15049;SDS011;7622;42.724;23.250;2022-08-19T01:27:53;5.03;;;4.63;;
15049;SDS011;7622;42.724;23.250;2022-08-19T01:30:22;5.27;;;4.87;;
15049;SDS011;7622;42.724;23.250;2022-08-19T01:32:51;5.77;;;4.80;;
15049;SDS011;7622;42.724;23.250;2022-08-19T01:35:18;6.03;;;5.40;;
15049;SDS011;7622;42.724;23.250;2022-08-19T01:37:49;5.93;;;5.60;;
15049;SDS011;7622;42.724;23.250;2022-08-19T01:40:21;7.77;;;5.73;;
15049;SDS011;7622;42.724;23.250;2022-08-19T01:42:49;5.70;;;5.30;;
15049;SDS011;7622;42.724;23.250;2022-08-19T01:45:17;11.73;;;5.27;;
15049;SDS011;7622;42.724;23.250;2022-08-19T01:47:45;8.23;;;6.13;;
15049;SDS011;7622;42.724;23.250;2022-08-19T01:50:12;5.87;;;5.27;;
15049;SDS011;7622;42.724;23.250;2022-08-19T01:52:41;6.33;;;5.73;;
15049;SDS011;7622;42.724;23.250;2022-08-19T01:55:12;7.27;;;5.50;;
15049;SDS011;7622;42.724;23.250;2022-08-19T01:57:40;5.70;;;5.20;;
15049;SDS011;7622;42.724;23.250;2022-08-19T02:00:12;5.97;;;5.43;;
15049;SDS011;7622;42.724;23.250;2022-08-19T02:02:40;6.10;;;5.50;;
15049;SDS011;7622;42.724;23.250;2022-08-19T02:05:07;6.33;;;5.80;;
15049;SDS011;7622;42.724;23.250;2022-08-19T02:07:35;5.13;;;4.77;;
15049;SDS011;7622;42.724;23.250;2022-08-19T02:10:02;5.60;;;5.10;;
15049;SDS011;7622;42.724;23.250;2022-08-19T02:12:32;5.50;;;5.10;;
15049;SDS011;7622;42.724;23.250;2022-08-19T02:14:59;5.37;;;4.87;;
15049;SDS011;7622;42.724;23.250;2022-08-19T02:17:27;5.83;;;5.33;;
15049;SDS011;7622;42.724;23.250;2022-08-19T02:19:54;9.07;;;5.67;;
15049;SDS011;7622;42.724;23.250;2022-08-19T02:22:21;5.70;;;5.20;;
15049;SDS011;7622;42.724;23.250;2022-08-19T02:24:49;9.07;;;5.80;;
15049;SDS011;7622;42.724;23.250;2022-08-19T02:27:15;5.00;;;4.70;;
15049;SDS011;7622;42.724;23.250;2022-08-19T02:29:44;5.60;;;5.10;;
15049;SDS011;7622;42.724;23.250;2022-08-19T02:32:12;5.83;;;5.43;;
15049;SDS011;7622;42.724;23.250;2022-08-19T02:34:39;6.27;;;5.10;;
15049;SDS011;7622;42.724;23.250;2022-08-19T02:37:06;5.63;;;5.23;;
15049;SDS011;7622;42.724;23.250;2022-08-19T02:39:53;6.80;;;5.90;;
15049;SDS011;7622;42.724;23.250;2022-08-19T02:42:19;15.93;;;5.77;;
15049;SDS011;7622;42.724;23.250;2022-08-19T02:44:47;5.93;;;5.43;;
15049;SDS011;7622;42.724;23.250;2022-08-19T02:47:14;6.13;;;5.57;;
15049;SDS011;7622;42.724;23.250;2022-08-19T02:49:40;6.40;;;5.80;;
15049;SDS011;7622;42.724;23.250;2022-08-19T02:52:07;6.70;;;5.73;;
15049;SDS011;7622;42.724;23.250;2022-08-19T02:54:35;7.20;;;6.50;;
15049;SDS011;7622;42.724;23.250;2022-08-19T02:57:02;6.87;;;6.37;;
15049;SDS011;7622;42.724;23.250;2022-08-19T02:59:30;7.07;;;6.40;;
15049;SDS011;7622;42.724;23.250;2022-08-19T03:01:58;7.57;;;6.70;;
15049;SDS011;7622;42.724;23.250;2022-08-19T03:04:26;6.63;;;6.07;;
15049;SDS011;7622;42.724;23.250;2022-08-19T03:06:53;7.77;;;6.63;;
15049;SDS011;7622;42.724;23.250;2022-08-19T03:09:20;9.03;;;6.73;;
15049;SDS011;7622;42.724;23.250;2022-08-19T03:11:47;7.73;;;6.97;;
15049;SDS011;7622;42.724;23.250;2022-08-19T03:14:15;7.63;;;7.03;;
15049;SDS011;7622;42.724;23.250;2022-08-19T03:16:44;7.80;;;7.00;;
15049;SDS011;7622;42.724;23.250;2022-08-19T03:19:13;8.00;;;7.10;;
15049;SDS011;7622;42.724;23.250;2022-08-19T03:21:43;7.90;;;7.30;;
15049;SDS011;7622;42.724;23.250;2022-08-19T03:24:10;7.53;;;7.03;;
15049;SDS011;7622;42.724;23.250;2022-08-19T03:26:38;7.70;;;7.10;;
15049;SDS011;7622;42.724;23.250;2022-08-19T03:29:07;7.43;;;6.83;;
15049;SDS011;7622;42.724;23.250;2022-08-19T03:31:35;9.77;;;8.93;;
15049;SDS011;7622;42.724;23.250;2022-08-19T03:34:02;8.57;;;7.63;;
15049;SDS011;7622;42.724;23.250;2022-08-19T03:36:31;8.23;;;7.40;;
15049;SDS011;7622;42.724;23.250;2022-08-19T03:38:59;10.10;;;7.83;;
15049;SDS011;7622;42.724;23.250;2022-08-19T03:41:27;10.10;;;8.13;;
15049;SDS011;7622;42.724;23.250;2022-08-19T03:43:56;12.87;;;8.70;;
15049;SDS011;7622;42.724;23.250;2022-08-19T03:46:24;11.70;;;8.40;;
15049;SDS011;7622;42.724;23.250;2022-08-19T03:48:54;11.00;;;8.30;;
15049;SDS011;7622;42.724;23.250;2022-08-19T03:51:23;8.47;;;7.77;;
15049;SDS011;7622;42.724;23.250;2022-08-19T03:53:54;7.73;;;7.03;;
15049;SDS011;7622;42.724;23.250;2022-08-19T03:56:22;10.47;;;7.67;;
15049;SDS011;7622;42.724;23.250;2022-08-19T03:58:50;9.47;;;7.47;;
15049;SDS011;7622;42.724;23.250;2022-08-19T04:01:20;11.67;;;8.57;;
15049;SDS011;7622;42.724;23.250;2022-08-19T04:03:48;9.07;;;8.20;;
15049;SDS011;7622;42.724;23.250;2022-08-19T04:06:16;9.83;;;8.50;;
15049;SDS011;7622;42.724;23.250;2022-08-19T04:08:46;9.03;;;8.23;;
15049;SDS011;7622;42.724;23.250;2022-08-19T04:11:17;12.23;;;8.10;;
15049;SDS011;7622;42.724;23.250;2022-08-19T04:13:46;12.17;;;8.40;;
15049;SDS011;7622;42.724;23.250;2022-08-19T04:16:13;10.67;;;8.03;;
15049;SDS011;7622;42.724;23.250;2022-08-19T04:18:40;8.37;;;7.60;;
15049;SDS011;7622;42.724;23.250;2022-08-19T04:21:08;10.20;;;7.30;;
15049;SDS011;7622;42.724;23.250;2022-08-19T04:23:41;10.20;;;8.73;;
15049;SDS011;7622;42.724;23.250;2022-08-19T04:26:11;9.07;;;8.10;;
15049;SDS011;7622;42.724;23.250;2022-08-19T04:28:40;9.27;;;7.60;;
15049;SDS011;7622;42.724;23.250;2022-08-19T04:31:11;8.97;;;7.03;;
15049;SDS011;7622;42.724;23.250;2022-08-19T04:33:39;9.97;;;7.03;;
15049;SDS011;7622;42.724;23.250;2022-08-19T04:36:06;9.50;;;7.37;;
15049;SDS011;7622;42.724;23.250;2022-08-19T04:38:35;7.37;;;6.70;;
15049;SDS011;7622;42.724;23.250;2022-08-19T04:41:02;7.40;;;6.70;;
15049;SDS011;7622;42.724;23.250;2022-08-19T04:43:48;6.83;;;5.97;;
15049;SDS011;7622;42.724;23.250;2022-08-19T04:46:15;6.30;;;5.90;;
15049;SDS011;7622;42.724;23.250;2022-08-19T04:48:45;7.10;;;6.53;;
15049;SDS011;7622;42.724;23.250;2022-08-19T04:51:12;7.40;;;6.63;;
15049;SDS011;7622;42.724;23.250;2022-08-19T04:53:39;6.43;;;6.03;;
15049;SDS011;7622;42.724;23.250;2022-08-19T04:56:09;6.90;;;6.20;;
15049;SDS011;7622;42.724;23.250;2022-08-19T04:58:37;7.37;;;6.43;;
15049;SDS011;7622;42.724;23.250;2022-08-19T05:01:06;7.00;;;6.30;;
15049;SDS011;7622;42.724;23.250;2022-08-19T05:03:35;11.00;;;6.77;;
15049;SDS011;7622;42.724;23.250;2022-08-19T05:06:04;7.80;;;6.10;;
15049;SDS011;7622;42.724;23.250;2022-08-19T05:08:33;6.37;;;5.87;;
15049;SDS011;7622;42.724;23.250;2022-08-19T05:11:01;7.00;;;6.37;;
15049;SDS011;7622;42.724;23.250;2022-08-19T05:13:34;7.10;;;6.50;;
15049;SDS011;7622;42.724;23.250;2022-08-19T05:16:01;7.47;;;6.30;;
15049;SDS011;7622;42.724;23.250;2022-08-19T05:18:30;7.37;;;6.80;;
15049;SDS011;7622;42.724;23.250;2022-08-19T05:21:15;6.93;;;6.37;;
15049;SDS011;7622;42.724;23.250;2022-08-19T05:24:02;7.40;;;6.80;;
15049;SDS011;7622;42.724;23.250;2022-08-19T05:26:33;7.13;;;6.37;;
15049;SDS011;7622;42.724;23.250;2022-08-19T05:29:00;7.17;;;6.57;;
15049;SDS011;7622;42.724;23.250;2022-08-19T05:31:27;7.60;;;6.73;;
15049;SDS011;7622;42.724;23.250;2022-08-19T05:33:55;7.87;;;6.97;;
15049;SDS011;7622;42.724;23.250;2022-08-19T05:36:23;17.13;;;7.77;;
15049;SDS011;7622;42.724;23.250;2022-08-19T05:38:50;7.37;;;6.70;;
15049;SDS011;7622;42.724;23.250;2022-08-19T05:41:18;9.87;;;7.60;;
15049;SDS011;7622;42.724;23.250;2022-08-19T05:43:46;8.70;;;7.80;;
15049;SDS011;7622;42.724;23.250;2022-08-19T05:46:16;8.07;;;7.37;;
15049;SDS011;7622;42.724;23.250;2022-08-19T05:48:44;7.93;;;6.60;;
15049;SDS011;7622;42.724;23.250;2022-08-19T05:51:12;7.87;;;7.13;;
15049;SDS011;7622;42.724;23.250;2022-08-19T05:53:39;6.70;;;6.10;;
15049;SDS011;7622;42.724;23.250;2022-08-19T05:56:06;8.13;;;6.63;;
15049;SDS011;7622;42.724;23.250;2022-08-19T05:58:34;8.43;;;5.80;;
15049;SDS011;7622;42.724;23.250;2022-08-19T06:01:02;8.98;;;6.47;;
15049;SDS011;7622;42.724;23.250;2022-08-19T06:03:31;13.93;;;7.47;;
15049;SDS011;7622;42.724;23.250;2022-08-19T06:05:59;26.55;;;8.20;;
15049;SDS011;7622;42.724;23.250;2022-08-19T06:08:29;11.97;;;6.57;;
15049;SDS011;7622;42.724;23.250;2022-08-19T06:10:56;10.43;;;6.00;;
15049;SDS011;7622;42.724;23.250;2022-08-19T06:13:23;10.00;;;6.55;;
15049;SDS011;7622;42.724;23.250;2022-08-19T06:15:50;13.48;;;7.05;;
15049;SDS011;7622;42.724;23.250;2022-08-19T06:18:17;11.40;;;6.30;;
15049;SDS011;7622;42.724;23.250;2022-08-19T06:20:44;13.30;;;7.13;;
15049;SDS011;7622;42.724;23.250;2022-08-19T06:23:11;15.50;;;6.97;;
15049;SDS011;7622;42.724;23.250;2022-08-19T06:25:40;18.23;;;7.53;;
15049;SDS011;7622;42.724;23.250;2022-08-19T06:28:06;25.67;;;8.30;;
15049;SDS011;7622;42.724;23.250;2022-08-19T06:30:33;16.55;;;7.13;;
15049;SDS011;7622;42.724;23.250;2022-08-19T06:33:00;19.48;;;7.25;;
15049;SDS011;7622;42.724;23.250;2022-08-19T06:35:26;11.98;;;7.13;;
15049;SDS011;7622;42.724;23.250;2022-08-19T06:37:54;18.15;;;7.50;;
15049;SDS011;7622;42.724;23.250;2022-08-19T06:40:21;17.55;;;8.00;;
15049;SDS011;7622;42.724;23.250;2022-08-19T06:42:49;19.63;;;6.95;;
15049;SDS011;7622;42.724;23.250;2022-08-19T06:45:17;11.60;;;6.70;;
15049;SDS011;7622;42.724;23.250;2022-08-19T06:47:45;11.20;;;6.70;;
15049;SDS011;7622;42.724;23.250;2022-08-19T06:50:13;9.25;;;6.65;;
15049;SDS011;7622;42.724;23.250;2022-08-19T06:52:40;12.70;;;6.47;;
15049;SDS011;7622;42.724;23.250;2022-08-19T06:55:07;10.90;;;6.80;;
15049;SDS011;7622;42.724;23.250;2022-08-19T06:57:34;14.13;;;6.65;;
15049;SDS011;7622;42.724;23.250;2022-08-19T07:00:03;7.00;;;6.20;;
15049;SDS011;7622;42.724;23.250;2022-08-19T07:02:35;10.75;;;5.60;;
15049;SDS011;7622;42.724;23.250;2022-08-19T07:05:02;11.68;;;6.88;;
15049;SDS011;7622;42.724;23.250;2022-08-19T07:07:30;10.75;;;6.55;;
15049;SDS011;7622;42.724;23.250;2022-08-19T07:09:58;14.25;;;6.25;;
15049;SDS011;7622;42.724;23.250;2022-08-19T07:12:25;9.68;;;6.47;;
15049;SDS011;7622;42.724;23.250;2022-08-19T07:14:53;8.18;;;6.20;;
15049;SDS011;7622;42.724;23.250;2022-08-19T07:17:21;6.43;;;5.80;;
15049;SDS011;7622;42.724;23.250;2022-08-19T07:19:47;9.18;;;6.32;;
15049;SDS011;7622;42.724;23.250;2022-08-19T07:22:15;7.07;;;6.00;;
15049;SDS011;7622;42.724;23.250;2022-08-19T07:24:43;9.57;;;6.00;;
15049;SDS011;7622;42.724;23.250;2022-08-19T07:27:09;6.90;;;6.40;;
15049;SDS011;7622;42.724;23.250;2022-08-19T07:29:36;10.57;;;6.07;;
15049;SDS011;7622;42.724;23.250;2022-08-19T07:32:04;9.15;;;6.22;;
15049;SDS011;7622;42.724;23.250;2022-08-19T07:34:32;7.18;;;6.53;;
15049;SDS011;7622;42.724;23.250;2022-08-19T07:37:02;8.00;;;6.55;;
15049;SDS011;7622;42.724;23.250;2022-08-19T07:39:30;10.43;;;6.50;;
15049;SDS011;7622;42.724;23.250;2022-08-19T07:41:59;7.43;;;6.30;;
15049;SDS011;7622;42.724;23.250;2022-08-19T07:44:27;6.72;;;6.32;;
15049;SDS011;7622;42.724;23.250;2022-08-19T07:46:55;7.10;;;6.45;;
15049;SDS011;7622;42.724;23.250;2022-08-19T07:49:24;8.85;;;6.68;;
15049;SDS011;7622;42.724;23.250;2022-08-19T07:51:52;8.75;;;7.07;;
15049;SDS011;7622;42.724;23.250;2022-08-19T07:54:23;9.15;;;6.47;;
15049;SDS011;7622;42.724;23.250;2022-08-19T07:56:52;7.85;;;6.93;;
15049;SDS011;7622;42.724;23.250;2022-08-19T07:59:19;7.95;;;6.00;;
15049;SDS011;7622;42.724;23.250;2022-08-19T08:01:46;11.48;;;6.57;;
15049;SDS011;7622;42.724;23.250;2022-08-19T08:04:15;7.10;;;6.35;;
15049;SDS011;7622;42.724;23.250;2022-08-19T08:07:01;9.00;;;6.57;;
15049;SDS011;7622;42.724;23.250;2022-08-19T08:09:45;9.05;;;6.57;;
15049;SDS011;7622;42.724;23.250;2022-08-19T08:12:14;8.15;;;6.72;;
15049;SDS011;7622;42.724;23.250;2022-08-19T08:14:43;8.70;;;7.30;;
15049;SDS011;7622;42.724;23.250;2022-08-19T08:17:14;10.55;;;8.20;;
15049;SDS011;7622;42.724;23.250;2022-08-19T08:19:42;8.25;;;7.00;;
15049;SDS011;7622;42.724;23.250;2022-08-19T08:22:11;13.07;;;7.15;;
15049;SDS011;7622;42.724;23.250;2022-08-19T08:25:09;10.15;;;6.55;;
15049;SDS011;7622;42.724;23.250;2022-08-19T08:27:39;12.70;;;6.90;;
15049;SDS011;7622;42.724;23.250;2022-08-19T08:30:08;8.35;;;6.50;;
15049;SDS011;7622;42.724;23.250;2022-08-19T08:32:36;8.32;;;6.55;;
15049;SDS011;7622;42.724;23.250;2022-08-19T08:35:04;8.05;;;5.93;;
15049;SDS011;7622;42.724;23.250;2022-08-19T08:37:33;7.18;;;6.10;;
15049;SDS011;7622;42.724;23.250;2022-08-19T08:40:02;6.97;;;5.93;;
15049;SDS011;7622;42.724;23.250;2022-08-19T08:42:32;11.57;;;6.25;;
15049;SDS011;7622;42.724;23.250;2022-08-19T08:45:03;6.70;;;6.03;;
15049;SDS011;7622;42.724;23.250;2022-08-19T08:47:38;6.82;;;5.88;;
15049;SDS011;7622;42.724;23.250;2022-08-19T08:50:09;7.43;;;5.65;;
15049;SDS011;7622;42.724;23.250;2022-08-19T08:52:43;10.35;;;5.78;;
15049;SDS011;7622;42.724;23.250;2022-08-19T08:55:13;6.15;;;5.30;;
15049;SDS011;7622;42.724;23.250;2022-08-19T08:57:48;5.95;;;4.90;;
15049;SDS011;7622;42.724;23.250;2022-08-19T09:00:22;7.65;;;5.55;;
15049;SDS011;7622;42.724;23.250;2022-08-19T09:02:51;6.50;;;5.38;;
15049;SDS011;7622;42.724;23.250;2022-08-19T09:05:18;9.30;;;5.43;;
15049;SDS011;7622;42.724;23.250;2022-08-19T09:07:49;5.40;;;4.82;;
15049;SDS011;7622;42.724;23.250;2022-08-19T09:10:27;4.40;;;4.10;;
15049;SDS011;7622;42.724;23.250;2022-08-19T09:13:00;133.75;;;12.07;;
15049;SDS011;7622;42.724;23.250;2022-08-19T09:15:36;11.95;;;5.50;;
15049;SDS011;7622;42.724;23.250;2022-08-19T09:18:05;5.53;;;4.47;;
15049;SDS011;7622;42.724;23.250;2022-08-19T09:20:34;4.07;;;3.78;;
15049;SDS011;7622;42.724;23.250;2022-08-19T09:23:02;4.70;;;4.40;;
15049;SDS011;7622;42.724;23.250;2022-08-19T09:25:29;4.43;;;4.07;;
15049;SDS011;7622;42.724;23.250;2022-08-19T09:27:59;4.45;;;3.97;;
15049;SDS011;7622;42.724;23.250;2022-08-19T09:30:28;4.50;;;4.10;;
15049;SDS011;7622;42.724;23.250;2022-08-19T09:32:56;5.55;;;4.85;;
15049;SDS011;7622;42.724;23.250;2022-08-19T09:35:24;3.70;;;3.50;;
15049;SDS011;7622;42.724;23.250;2022-08-19T09:37:53;32.03;;;6.57;;
15049;SDS011;7622;42.724;23.250;2022-08-19T09:40:23;4.95;;;3.95;;
15049;SDS011;7622;42.724;23.250;2022-08-19T09:42:51;4.18;;;3.88;;
15049;SDS011;7622;42.724;23.250;2022-08-19T09:45:19;4.43;;;3.90;;
15049;SDS011;7622;42.724;23.250;2022-08-19T09:47:47;5.20;;;4.70;;
15049;SDS011;7622;42.724;23.250;2022-08-19T09:50:16;5.80;;;5.10;;
15049;SDS011;7622;42.724;23.250;2022-08-19T09:52:43;10.30;;;4.75;;
15049;SDS011;7622;42.724;23.250;2022-08-19T09:55:10;14.50;;;5.90;;
15049;SDS011;7622;42.724;23.250;2022-08-19T09:57:39;5.68;;;4.40;;
15049;SDS011;7622;42.724;23.250;2022-08-19T10:00:07;4.05;;;3.80;;
15049;SDS011;7622;42.724;23.250;2022-08-19T10:02:35;5.28;;;3.70;;
15049;SDS011;7622;42.724;23.250;2022-08-19T10:05:02;7.72;;;4.18;;
15049;SDS011;7622;42.724;23.250;2022-08-19T10:07:46;6.13;;;4.20;;
15049;SDS011;7622;42.724;23.250;2022-08-19T10:10:14;6.00;;;3.58;;
15049;SDS011;7622;42.724;23.250;2022-08-19T10:12:42;6.25;;;3.88;;
15049;SDS011;7622;42.724;23.250;2022-08-19T10:15:12;4.22;;;3.83;;
15049;SDS011;7622;42.724;23.250;2022-08-19T10:17:39;5.30;;;3.90;;
15049;SDS011;7622;42.724;23.250;2022-08-19T10:20:06;3.60;;;3.33;;
15049;SDS011;7622;42.724;23.250;2022-08-19T10:22:34;4.80;;;3.90;;
15049;SDS011;7622;42.724;23.250;2022-08-19T10:25:03;4.35;;;3.95;;
15049;SDS011;7622;42.724;23.250;2022-08-19T10:27:31;6.03;;;3.80;;
15049;SDS011;7622;42.724;23.250;2022-08-19T10:29:59;4.10;;;3.78;;
15049;SDS011;7622;42.724;23.250;2022-08-19T10:32:26;5.05;;;4.05;;
15049;SDS011;7622;42.724;23.250;2022-08-19T10:34:54;5.07;;;4.70;;
15049;SDS011;7622;42.724;23.250;2022-08-19T10:37:21;4.55;;;4.15;;
15049;SDS011;7622;42.724;23.250;2022-08-19T10:39:48;4.30;;;3.80;;
15049;SDS011;7622;42.724;23.250;2022-08-19T10:42:15;4.55;;;4.07;;
15049;SDS011;7622;42.724;23.250;2022-08-19T10:44:43;4.28;;;3.97;;
15049;SDS011;7622;42.724;23.250;2022-08-19T10:47:13;4.70;;;4.40;;
15049;SDS011;7622;42.724;23.250;2022-08-19T10:49:40;4.70;;;4.30;;
15049;SDS011;7622;42.724;23.250;2022-08-19T10:52:20;4.88;;;4.05;;
15049;SDS011;7622;42.724;23.250;2022-08-19T10:54:59;4.90;;;4.40;;
15049;SDS011;7622;42.724;23.250;2022-08-19T10:57:43;7.72;;;4.78;;
15049;SDS011;7622;42.724;23.250;2022-08-19T11:00:11;4.75;;;4.35;;
15049;SDS011;7622;42.724;23.250;2022-08-19T11:02:40;4.53;;;4.13;;
15049;SDS011;7622;42.724;23.250;2022-08-19T11:05:08;5.35;;;3.78;;
15049;SDS011;7622;42.724;23.250;2022-08-19T11:07:37;4.80;;;4.40;;
15049;SDS011;7622;42.724;23.250;2022-08-19T11:10:04;5.88;;;4.32;;
15049;SDS011;7622;42.724;23.250;2022-08-19T11:12:32;8.13;;;5.00;;
15049;SDS011;7622;42.724;23.250;2022-08-19T11:14:59;4.80;;;4.40;;
15049;SDS011;7622;42.724;23.250;2022-08-19T11:17:26;5.55;;;4.40;;
15049;SDS011;7622;42.724;23.250;2022-08-19T11:19:56;6.15;;;4.32;;
15049;SDS011;7622;42.724;23.250;2022-08-19T11:22:22;5.75;;;4.35;;
15049;SDS011;7622;42.724;23.250;2022-08-19T11:24:49;4.57;;;4.18;;
15049;SDS011;7622;42.724;23.250;2022-08-19T11:27:16;5.78;;;4.68;;
15049;SDS011;7622;42.724;23.250;2022-08-19T11:29:43;4.97;;;4.57;;
15049;SDS011;7622;42.724;23.250;2022-08-19T11:32:10;6.47;;;4.05;;
15049;SDS011;7622;42.724;23.250;2022-08-19T11:34:38;4.90;;;4.50;;
15049;SDS011;7622;42.724;23.250;2022-08-19T11:37:06;5.10;;;4.65;;
15049;SDS011;7622;42.724;23.250;2022-08-19T11:39:34;6.90;;;4.68;;
15049;SDS011;7622;42.724;23.250;2022-08-19T11:42:03;4.93;;;4.60;;
15049;SDS011;7622;42.724;23.250;2022-08-19T11:44:51;4.18;;;3.97;;
15049;SDS011;7622;42.724;23.250;2022-08-19T11:47:18;5.07;;;4.53;;
15049;SDS011;7622;42.724;23.250;2022-08-19T11:49:45;4.82;;;4.50;;
15049;SDS011;7622;42.724;23.250;2022-08-19T11:52:14;4.50;;;4.20;;
15049;SDS011;7622;42.724;23.250;2022-08-19T11:54:40;4.47;;;4.10;;
15049;SDS011;7622;42.724;23.250;2022-08-19T11:57:07;4.70;;;4.40;;
15049;SDS011;7622;42.724;23.250;2022-08-19T11:59:34;4.07;;;3.80;;
15049;SDS011;7622;42.724;23.250;2022-08-19T12:02:01;6.10;;;4.43;;
15049;SDS011;7622;42.724;23.250;2022-08-19T12:04:28;4.50;;;4.05;;
15049;SDS011;7622;42.724;23.250;2022-08-19T12:06:55;4.43;;;4.03;;
15049;SDS011;7622;42.724;23.250;2022-08-19T12:09:23;4.93;;;4.50;;
15049;SDS011;7622;42.724;23.250;2022-08-19T12:11:50;7.30;;;4.30;;
15049;SDS011;7622;42.724;23.250;2022-08-19T12:14:17;4.68;;;4.28;;
15049;SDS011;7622;42.724;23.250;2022-08-19T12:16:44;5.30;;;4.72;;
15049;SDS011;7622;42.724;23.250;2022-08-19T12:19:11;5.93;;;4.65;;
15049;SDS011;7622;42.724;23.250;2022-08-19T12:21:38;4.90;;;4.43;;
15049;SDS011;7622;42.724;23.250;2022-08-19T12:24:05;5.05;;;3.85;;
15049;SDS011;7622;42.724;23.250;2022-08-19T12:26:34;4.85;;;4.47;;
15049;SDS011;7622;42.724;23.250;2022-08-19T12:29:02;6.43;;;4.28;;
15049;SDS011;7622;42.724;23.250;2022-08-19T12:31:29;4.68;;;4.22;;
15049;SDS011;7622;42.724;23.250;2022-08-19T12:33:56;8.80;;;4.97;;
15049;SDS011;7622;42.724;23.250;2022-08-19T12:36:24;4.95;;;4.50;;
15049;SDS011;7622;42.724;23.250;2022-08-19T12:38:51;4.65;;;4.25;;
15049;SDS011;7622;42.724;23.250;2022-08-19T12:41:19;4.90;;;4.18;;
15049;SDS011;7622;42.724;23.250;2022-08-19T12:43:48;4.70;;;4.40;;
15049;SDS011;7622;42.724;23.250;2022-08-19T12:46:16;9.18;;;4.70;;
15049;SDS011;7622;42.724;23.250;2022-08-19T12:48:43;4.38;;;3.92;;
15049;SDS011;7622;42.724;23.250;2022-08-19T12:51:12;5.05;;;4.65;;
15049;SDS011;7622;42.724;23.250;2022-08-19T12:53:40;7.00;;;4.30;;
15049;SDS011;7622;42.724;23.250;2022-08-19T12:56:09;6.28;;;4.40;;
15049;SDS011;7622;42.724;23.250;2022-08-19T12:58:39;5.93;;;4.07;;
15049;SDS011;7622;42.724;23.250;2022-08-19T13:01:09;8.85;;;4.72;;
15049;SDS011;7622;42.724;23.250;2022-08-19T13:03:37;7.88;;;5.80;;
15049;SDS011;7622;42.724;23.250;2022-08-19T13:06:04;9.77;;;4.95;;
15049;SDS011;7622;42.724;23.250;2022-08-19T13:08:31;4.90;;;4.40;;
15049;SDS011;7622;42.724;23.250;2022-08-19T13:11:06;9.13;;;4.30;;
15049;SDS011;7622;42.724;23.250;2022-08-19T13:13:36;5.75;;;4.60;;
15049;SDS011;7622;42.724;23.250;2022-08-19T13:16:06;6.90;;;4.88;;
15049;SDS011;7622;42.724;23.250;2022-08-19T13:18:34;7.72;;;4.55;;
15049;SDS011;7622;42.724;23.250;2022-08-19T13:21:01;4.35;;;3.95;;
15049;SDS011;7622;42.724;23.250;2022-08-19T13:23:30;7.95;;;3.88;;
15049;SDS011;7622;42.724;23.250;2022-08-19T13:25:57;7.15;;;4.28;;
15049;SDS011;7622;42.724;23.250;2022-08-19T13:28:24;4.88;;;4.38;;
15049;SDS011;7622;42.724;23.250;2022-08-19T13:31:11;7.45;;;4.22;;
15049;SDS011;7622;42.724;23.250;2022-08-19T13:34:00;7.60;;;4.50;;
15049;SDS011;7622;42.724;23.250;2022-08-19T13:36:27;6.07;;;4.20;;
15049;SDS011;7622;42.724;23.250;2022-08-19T13:38:54;5.88;;;4.40;;
15049;SDS011;7622;42.724;23.250;2022-08-19T13:41:21;7.28;;;4.30;;
15049;SDS011;7622;42.724;23.250;2022-08-19T13:43:48;6.25;;;4.65;;
15049;SDS011;7622;42.724;23.250;2022-08-19T13:46:15;6.85;;;4.40;;
15049;SDS011;7622;42.724;23.250;2022-08-19T13:48:42;6.43;;;4.68;;
15049;SDS011;7622;42.724;23.250;2022-08-19T13:51:11;4.90;;;4.18;;
15049;SDS011;7622;42.724;23.250;2022-08-19T13:53:38;4.93;;;3.67;;
15049;SDS011;7622;42.724;23.250;2022-08-19T13:56:07;5.32;;;4.78;;
15049;SDS011;7622;42.724;23.250;2022-08-19T13:58:36;6.35;;;4.07;;
15049;SDS011;7622;42.724;23.250;2022-08-19T14:01:02;8.98;;;4.20;;
15049;SDS011;7622;42.724;23.250;2022-08-19T14:03:31;5.43;;;4.10;;
15049;SDS011;7622;42.724;23.250;2022-08-19T14:05:58;5.80;;;4.20;;
15049;SDS011;7622;42.724;23.250;2022-08-19T14:08:27;5.57;;;4.68;;
15049;SDS011;7622;42.724;23.250;2022-08-19T14:10:57;4.22;;;3.92;;
15049;SDS011;7622;42.724;23.250;2022-08-19T14:13:24;7.88;;;4.70;;
15049;SDS011;7622;42.724;23.250;2022-08-19T14:15:51;4.82;;;4.45;;
15049;SDS011;7622;42.724;23.250;2022-08-19T14:18:18;5.70;;;4.03;;
15049;SDS011;7622;42.724;23.250;2022-08-19T14:20:45;4.32;;;4.13;;
15049;SDS011;7622;42.724;23.250;2022-08-19T14:23:12;5.32;;;4.75;;
15049;SDS011;7622;42.724;23.250;2022-08-19T14:25:40;7.03;;;4.85;;
15049;SDS011;7622;42.724;23.250;2022-08-19T14:28:07;4.40;;;4.07;;
15049;SDS011;7622;42.724;23.250;2022-08-19T14:30:34;4.22;;;3.92;;
15049;SDS011;7622;42.724;23.250;2022-08-19T14:33:03;6.88;;;4.93;;
15049;SDS011;7622;42.724;23.250;2022-08-19T14:35:31;5.40;;;4.95;;
15049;SDS011;7622;42.724;23.250;2022-08-19T14:37:59;7.38;;;4.30;;
15049;SDS011;7622;42.724;23.250;2022-08-19T14:40:28;5.30;;;4.35;;
15049;SDS011;7622;42.724;23.250;2022-08-19T14:42:58;5.15;;;4.50;;
15049;SDS011;7622;42.724;23.250;2022-08-19T14:45:29;5.20;;;4.75;;
15049;SDS011;7622;42.724;23.250;2022-08-19T14:47:57;7.22;;;5.03;;
15049;SDS011;7622;42.724;23.250;2022-08-19T14:50:24;5.60;;;5.20;;
15049;SDS011;7622;42.724;23.250;2022-08-19T14:52:57;5.00;;;4.70;;
15049;SDS011;7622;42.724;23.250;2022-08-19T14:55:24;6.45;;;4.60;;